Time;durP1;ratioP1;P1;durP2;ratioP2;P2;SDS_P1;SDS_P2;PMS_P1;PMS_P2;Temp;Humidity;BMP_temperature;BMP_pressure;BME280_temperature;BME280_humidity;BME280_pressure;Samples;Min_cycle;Max_cycle;Signal;HPM_P1;HPM_P2
2022/04/25 00:02:00;;;;;;;10.45;6.82;;;8.50;99.90;;;;;;5087223;28;20077;-62
2022/04/25 00:04:25;;;;;;;11.68;6.50;;;8.50;99.90;;;;;;5081203;28;20040;-63
2022/04/25 00:06:51;;;;;;;10.50;6.32;;;8.50;99.90;;;;;;5086285;28;20043;-63
2022/04/25 00:09:16;;;;;;;12.50;6.38;;;8.40;99.90;;;;;;5083982;28;20060;-64
2022/04/25 00:11:42;;;;;;;12.43;6.55;;;8.30;99.90;;;;;;5084127;28;20345;-64
2022/04/25 00:14:07;;;;;;;10.98;6.85;;;8.30;99.90;;;;;;5083648;28;20440;-62
2022/04/25 00:16:33;;;;;;;12.32;7.00;;;8.30;99.90;;;;;;5087144;28;20428;-63
2022/04/25 00:19:00;;;;;;;13.45;6.90;;;8.30;99.90;;;;;;5086328;28;20437;-63
2022/04/25 00:21:26;;;;;;;11.40;6.70;;;8.30;99.90;;;;;;5081835;28;20965;-62
2022/04/25 00:23:52;;;;;;;12.43;7.00;;;8.30;99.90;;;;;;5080885;28;20036;-63
2022/04/25 00:26:17;;;;;;;10.32;6.55;;;8.40;99.90;;;;;;5087725;28;20153;-63
2022/04/25 00:28:43;;;;;;;13.77;7.32;;;8.30;99.90;;;;;;5085534;28;20044;-63
2022/04/25 00:31:09;;;;;;;15.07;7.28;;;8.30;99.90;;;;;;5084719;28;20043;-62
2022/04/25 00:33:34;;;;;;;14.30;8.02;;;8.20;99.90;;;;;;5081549;28;20040;-63
2022/04/25 00:36:00;;;;;;;12.35;6.80;;;8.20;99.90;;;;;;5085054;28;20089;-62
2022/04/25 00:38:25;;;;;;;12.32;7.55;;;8.20;99.90;;;;;;5085712;28;20119;-63
2022/04/25 00:40:51;;;;;;;13.48;8.13;;;8.10;99.90;;;;;;5084597;28;20040;-62
2022/04/25 00:43:17;;;;;;;13.65;7.75;;;8.10;99.90;;;;;;5085965;28;20036;-63
2022/04/25 00:45:43;;;;;;;15.02;7.70;;;8.00;99.90;;;;;;5085781;28;20040;-63
2022/04/25 00:48:08;;;;;;;16.75;8.13;;;8.10;99.90;;;;;;5087579;28;20047;-63
2022/04/25 00:50:34;;;;;;;13.68;8.15;;;8.00;99.90;;;;;;5083027;28;20036;-63
2022/04/25 00:52:59;;;;;;;16.13;8.38;;;8.00;99.90;;;;;;5082124;28;20464;-63
2022/04/25 00:55:25;;;;;;;13.77;8.60;;;8.00;99.90;;;;;;5082974;28;20345;-63
2022/04/25 00:57:52;;;;;;;16.73;8.52;;;8.00;99.90;;;;;;5085483;28;20044;-63
2022/04/25 01:00:18;;;;;;;16.90;8.65;;;8.00;99.90;;;;;;5084362;28;20048;-63
2022/04/25 01:02:43;;;;;;;15.65;8.93;;;8.00;99.90;;;;;;5086029;28;21578;-63
2022/04/25 01:05:10;;;;;;;14.35;8.15;;;8.10;99.90;;;;;;5081694;28;20043;-62
2022/04/25 01:07:37;;;;;;;14.75;9.68;;;8.20;99.90;;;;;;5085344;28;20052;-63
2022/04/25 01:10:07;;;;;;;16.77;10.30;;;8.20;99.90;;;;;;5084947;28;20043;-64
2022/04/25 01:12:33;;;;;;;15.20;9.80;;;8.20;99.90;;;;;;5087652;28;20115;-63
2022/04/25 01:15:00;;;;;;;18.27;9.88;;;8.20;99.90;;;;;;5086403;28;20123;-62
2022/04/25 01:17:26;;;;;;;14.23;9.88;;;8.20;99.90;;;;;;5084950;28;20063;-63
2022/04/25 01:19:52;;;;;;;15.63;10.30;;;8.20;99.90;;;;;;5083656;28;20065;-62
2022/04/25 01:22:22;;;;;;;15.85;9.98;;;8.20;99.90;;;;;;5086875;28;20483;-63
2022/04/25 01:27:46;;;;;;;18.20;12.25;;;8.20;99.90;;;;;;5065980;28;20553;-62
2022/04/25 01:30:12;;;;;;;16.45;11.25;;;8.20;99.90;;;;;;5085086;28;20097;-62
2022/04/25 01:32:38;;;;;;;16.48;9.88;;;8.30;99.90;;;;;;5089269;28;20123;-62
2022/04/25 01:35:05;;;;;;;16.63;10.48;;;8.30;99.90;;;;;;5083987;28;20333;-63
2022/04/25 01:37:31;;;;;;;18.30;10.82;;;8.30;99.90;;;;;;5086924;28;20040;-63
2022/04/25 01:39:57;;;;;;;18.08;11.43;;;8.30;99.90;;;;;;5088199;28;20040;-63
2022/04/25 01:42:23;;;;;;;18.55;11.52;;;8.30;99.90;;;;;;5090113;28;20048;-63
2022/04/25 01:44:50;;;;;;;17.92;11.23;;;8.30;99.90;;;;;;5084341;28;20437;-62
2022/04/25 01:47:16;;;;;;;18.40;11.80;;;8.20;99.90;;;;;;5089247;28;20170;-63
2022/04/25 01:49:41;;;;;;;17.40;11.77;;;8.20;99.90;;;;;;5086726;28;20766;-63
2022/04/25 01:52:23;;;;;;;19.42;12.70;;;8.20;99.90;;;;;;5085573;28;20036;-63
2022/04/25 01:54:48;;;;;;;19.38;12.70;;;8.20;99.90;;;;;;5085464;28;20068;-63
2022/04/25 01:57:14;;;;;;;22.98;12.77;;;8.20;99.90;;;;;;5089114;28;20064;-64
2022/04/25 01:59:39;;;;;;;17.25;11.25;;;8.20;99.90;;;;;;5089568;28;20052;-63
2022/04/25 02:02:06;;;;;;;20.05;12.30;;;8.20;99.90;;;;;;5084952;28;20423;-63
2022/04/25 02:04:32;;;;;;;19.63;11.65;;;8.20;99.90;;;;;;5086589;28;20068;-63
2022/04/25 02:06:57;;;;;;;19.38;11.88;;;8.20;99.90;;;;;;5088095;28;20070;-63
2022/04/25 02:09:23;;;;;;;21.20;11.68;;;8.10;99.90;;;;;;5084932;28;20089;-63
2022/04/25 02:11:49;;;;;;;18.95;11.27;;;8.10;99.90;;;;;;5087879;28;20051;-64
2022/04/25 02:14:14;;;;;;;19.50;11.02;;;8.10;99.90;;;;;;5088824;28;20436;-62
2022/04/25 02:16:40;;;;;;;20.15;12.07;;;8.10;99.90;;;;;;5089193;28;20040;-63
2022/04/25 02:19:07;;;;;;;18.15;11.60;;;8.00;99.90;;;;;;5084354;28;20096;-62
2022/04/25 02:21:33;;;;;;;18.48;12.13;;;8.00;99.90;;;;;;5087407;28;20125;-63
2022/04/25 02:23:58;;;;;;;18.25;11.77;;;8.00;99.90;;;;;;5087199;28;20397;-63
2022/04/25 02:26:25;;;;;;;18.75;11.90;;;8.00;99.90;;;;;;5086738;28;20039;-63
2022/04/25 02:28:54;;;;;;;18.58;11.63;;;8.10;99.90;;;;;;5087276;28;20476;-62
2022/04/25 02:31:20;;;;;;;18.30;12.13;;;8.10;99.90;;;;;;5088595;28;20117;-63
2022/04/25 02:33:46;;;;;;;20.73;12.48;;;8.20;99.90;;;;;;5086212;28;20047;-65
2022/04/25 02:36:13;;;;;;;19.13;13.30;;;8.20;99.90;;;;;;5080155;28;20041;-63
2022/04/25 02:38:40;;;;;;;20.30;13.20;;;8.20;99.90;;;;;;5085932;28;20409;-64
2022/04/25 02:41:06;;;;;;;19.30;13.30;;;8.20;99.90;;;;;;5087119;28;20050;-63
2022/04/25 02:43:39;;;;;;;20.58;13.32;;;8.20;99.90;;;;;;5088849;28;20046;-63
2022/04/25 02:46:07;;;;;;;19.80;13.38;;;8.30;99.90;;;;;;5083891;28;20394;-63
2022/04/25 02:48:34;;;;;;;22.08;14.15;;;8.30;99.90;;;;;;5079814;28;20372;-64
2022/04/25 02:51:01;;;;;;;22.23;14.68;;;8.30;99.90;;;;;;5086452;28;20051;-62
2022/04/25 02:53:27;;;;;;;20.13;13.73;;;8.20;99.90;;;;;;5088362;28;20119;-63
2022/04/25 02:55:53;;;;;;;22.58;14.68;;;8.20;99.90;;;;;;5084233;28;20123;-63
2022/04/25 02:58:22;;;;;;;22.35;15.05;;;8.20;99.90;;;;;;5083423;28;20360;-62
2022/04/25 03:00:48;;;;;;;23.58;14.70;;;8.20;99.90;;;;;;5086430;28;20062;-63
2022/04/25 03:03:14;;;;;;;24.13;14.45;;;8.20;99.90;;;;;;5089676;28;20539;-62
2022/04/25 03:05:45;;;;;;;22.33;15.13;;;8.20;99.90;;;;;;5087175;28;20115;-62
2022/04/25 03:08:12;;;;;;;22.73;14.15;;;8.20;99.90;;;;;;5084961;28;20485;-63
2022/04/25 03:10:38;;;;;;;21.95;15.48;;;8.20;99.90;;;;;;5080166;28;20511;-63
2022/04/25 03:13:07;;;;;;;22.08;14.23;;;8.10;99.90;;;;;;5088030;28;20148;-64
2022/04/25 03:15:38;;;;;;;22.55;14.90;;;8.10;99.90;;;;;;5088346;28;20054;-63
2022/04/25 03:18:11;;;;;;;21.70;14.35;;;8.20;99.90;;;;;;5087215;28;20123;-63
2022/04/25 03:20:38;;;;;;;19.17;14.43;;;8.10;99.90;;;;;;5084162;28;20040;-63
2022/04/25 03:23:05;;;;;;;24.13;15.25;;;8.10;99.90;;;;;;5087517;28;20454;-63
2022/04/25 03:25:31;;;;;;;21.13;14.85;;;8.00;99.90;;;;;;5087012;28;20119;-64
2022/04/25 03:27:58;;;;;;;22.15;14.65;;;8.00;99.90;;;;;;5087284;28;20067;-63
2022/04/25 03:30:23;;;;;;;25.70;15.50;;;8.00;99.90;;;;;;5087685;28;20052;-63
2022/04/25 03:32:49;;;;;;;21.15;14.93;;;8.00;99.90;;;;;;5085764;28;20102;-62
2022/04/25 03:35:17;;;;;;;24.33;15.65;;;8.00;99.90;;;;;;5083097;28;20044;-63
2022/04/25 03:37:44;;;;;;;25.25;15.50;;;8.00;99.90;;;;;;5078063;28;20048;-63
2022/04/25 03:40:11;;;;;;;22.50;14.85;;;8.00;99.90;;;;;;5080824;28;20132;-63
2022/04/25 03:42:38;;;;;;;22.88;14.85;;;8.00;99.90;;;;;;5086816;28;21565;-63
2022/04/25 03:45:04;;;;;;;20.50;14.77;;;8.00;99.90;;;;;;5082941;28;20046;-63
2022/04/25 03:47:31;;;;;;;21.50;14.90;;;8.00;99.90;;;;;;5081437;28;20048;-63
2022/04/25 03:49:57;;;;;;;23.75;15.82;;;8.10;99.90;;;;;;5085291;28;20044;-63
2022/04/25 03:52:22;;;;;;;24.92;15.65;;;8.10;99.90;;;;;;5085484;28;20043;-63
2022/04/25 03:57:32;;;;;;;22.35;13.95;;;8.00;99.90;;;;;;5078545;28;20190;-64
2022/04/25 03:59:57;;;;;;;20.55;14.38;;;8.00;99.90;;;;;;5086735;28;20170;-64
2022/04/25 04:02:23;;;;;;;20.65;14.45;;;8.00;99.90;;;;;;5087678;28;20040;-63
2022/04/25 04:04:49;;;;;;;26.48;14.75;;;8.00;99.90;;;;;;5076077;28;20040;-64
2022/04/25 04:07:15;;;;;;;19.52;13.32;;;8.00;99.90;;;;;;5084687;28;20040;-64
2022/04/25 04:09:50;;;;;;;22.77;14.65;;;7.90;99.90;;;;;;5087178;28;20044;-64
2022/04/25 04:12:18;;;;;;;21.45;13.77;;;8.00;99.90;;;;;;5087336;28;20055;-64
2022/04/25 04:14:44;;;;;;;22.83;13.90;;;8.00;99.90;;;;;;5083165;28;20063;-64
2022/04/25 04:17:11;;;;;;;21.15;13.55;;;7.90;99.90;;;;;;5082272;28;20059;-64
2022/04/25 04:19:38;;;;;;;22.83;13.40;;;7.90;99.90;;;;;;5082968;28;20048;-64
2022/04/25 04:22:06;;;;;;;24.35;14.40;;;7.90;99.90;;;;;;5079866;28;20051;-63
2022/04/25 04:24:34;;;;;;;22.30;13.75;;;7.90;99.90;;;;;;5079671;28;20066;-63
2022/04/25 04:27:01;;;;;;;18.33;12.48;;;7.90;99.90;;;;;;5084112;28;20118;-63
2022/04/25 04:29:31;;;;;;;20.00;13.27;;;7.90;99.90;;;;;;5085231;28;20111;-63
2022/04/25 04:32:01;;;;;;;20.17;12.70;;;7.90;99.90;;;;;;5087129;28;20055;-63
2022/04/25 04:34:28;;;;;;;22.10;13.18;;;8.00;99.90;;;;;;5086967;28;20120;-63
2022/04/25 04:36:54;;;;;;;20.63;13.45;;;7.90;99.90;;;;;;5083303;28;20040;-64
2022/04/25 04:39:20;;;;;;;23.33;12.82;;;7.90;99.90;;;;;;5087517;28;20398;-64
2022/04/25 04:41:46;;;;;;;20.35;13.00;;;7.90;99.90;;;;;;5085616;28;20044;-63
2022/04/25 04:44:13;;;;;;;21.60;13.38;;;7.90;99.90;;;;;;5087281;28;20091;-62
2022/04/25 04:46:39;;;;;;;21.52;12.98;;;8.00;99.90;;;;;;5086501;28;20341;-63
2022/04/25 04:49:05;;;;;;;22.73;13.23;;;8.00;99.90;;;;;;5080430;28;20051;-62
2022/04/25 04:51:31;;;;;;;22.33;12.65;;;8.00;99.90;;;;;;5086058;28;20126;-63
2022/04/25 04:53:59;;;;;;;22.38;12.85;;;8.00;99.90;;;;;;5085569;28;20067;-64
2022/04/25 04:56:32;;;;;;;20.15;12.95;;;8.00;99.90;;;;;;5078720;28;20045;-63
2022/04/25 04:58:58;;;;;;;19.88;12.68;;;8.00;99.90;;;;;;5088208;28;20067;-63
2022/04/25 05:01:26;;;;;;;20.52;12.93;;;8.10;99.90;;;;;;5088213;28;20524;-63
2022/04/25 05:03:52;;;;;;;22.00;12.73;;;8.00;99.90;;;;;;5082879;28;20055;-63
2022/04/25 05:06:17;;;;;;;20.55;13.27;;;8.10;99.90;;;;;;5096166;28;20059;-63
2022/04/25 05:08:43;;;;;;;21.50;12.70;;;8.10;99.90;;;;;;5087356;28;20044;-63
2022/04/25 05:11:09;;;;;;;21.50;13.00;;;8.10;99.90;;;;;;5087874;28;20121;-63
2022/04/25 05:13:36;;;;;;;20.35;12.80;;;8.10;99.90;;;;;;5091192;28;20119;-63
2022/04/25 05:16:03;;;;;;;22.77;12.65;;;8.10;99.90;;;;;;5089651;28;20044;-63
2022/04/25 05:18:32;;;;;;;21.45;13.45;;;8.10;99.90;;;;;;5093375;28;20043;-62
2022/04/25 05:20:58;;;;;;;21.48;13.45;;;8.10;99.90;;;;;;5089094;28;20089;-63
2022/04/25 05:23:24;;;;;;;23.80;13.80;;;8.00;99.90;;;;;;5086459;28;20054;-63
2022/04/25 05:25:50;;;;;;;18.27;12.57;;;8.10;99.90;;;;;;5080486;28;20444;-63
2022/04/25 05:28:16;;;;;;;21.83;13.27;;;8.10;99.90;;;;;;5091699;28;20040;-62
2022/04/25 05:30:42;;;;;;;23.25;13.88;;;8.00;99.90;;;;;;5085420;28;20066;-63
2022/04/25 05:33:09;;;;;;;23.27;13.43;;;8.10;99.90;;;;;;5085126;28;20041;-63
2022/04/25 05:35:35;;;;;;;20.98;12.45;;;8.10;99.90;;;;;;5084288;28;20061;-62
2022/04/25 05:38:02;;;;;;;20.30;12.30;;;8.10;99.90;;;;;;5085986;28;20040;-63
2022/04/25 05:40:29;;;;;;;21.38;13.82;;;8.10;99.90;;;;;;5086624;28;20519;-65
2022/04/25 05:42:56;;;;;;;21.15;12.77;;;8.10;99.90;;;;;;5086095;28;20123;-63
2022/04/25 05:45:24;;;;;;;22.40;12.82;;;8.10;99.90;;;;;;5087784;28;20109;-62
2022/04/25 05:47:55;;;;;;;20.95;12.65;;;8.10;99.90;;;;;;5089206;28;20044;-63
2022/04/25 05:53:06;;;;;;;22.73;12.32;;;8.10;99.90;;;;;;5078226;28;20463;-64
2022/04/25 05:55:32;;;;;;;18.75;13.10;;;8.10;99.90;;;;;;5085994;28;20048;-63
2022/04/25 05:57:58;;;;;;;20.58;13.23;;;8.20;99.90;;;;;;5083984;28;20047;-63
2022/04/25 06:00:24;;;;;;;20.77;12.77;;;8.20;99.90;;;;;;5089451;28;20072;-63
2022/04/25 06:02:50;;;;;;;22.08;14.07;;;8.20;99.90;;;;;;5090722;28;20055;-63
2022/04/25 06:05:16;;;;;;;22.13;12.07;;;8.20;99.90;;;;;;5085509;28;20039;-64
2022/04/25 06:07:45;;;;;;;20.35;13.18;;;8.30;99.90;;;;;;5089723;28;20101;-63
2022/04/25 06:10:12;;;;;;;20.58;13.20;;;8.30;99.90;;;;;;5091803;28;20062;-64
2022/04/25 06:12:47;;;;;;;18.83;11.80;;;8.40;99.90;;;;;;5091394;28;20075;-63
2022/04/25 06:15:14;;;;;;;21.48;12.50;;;8.50;99.90;;;;;;5089997;28;20390;-63
2022/04/25 06:17:39;;;;;;;20.33;11.80;;;8.50;99.90;;;;;;5089818;28;20395;-63
2022/04/25 06:20:06;;;;;;;16.73;11.73;;;8.50;99.90;;;;;;5084996;28;20044;-64
2022/04/25 06:22:32;;;;;;;17.52;11.18;;;8.60;99.90;;;;;;5089262;28;20418;-63
2022/04/25 06:24:58;;;;;;;16.65;10.15;;;8.60;99.90;;;;;;5090776;28;20085;-64
2022/04/25 06:27:23;;;;;;;17.58;10.80;;;8.60;99.90;;;;;;5086319;28;20063;-63
2022/04/25 06:29:49;;;;;;;20.30;10.10;;;8.70;99.90;;;;;;5089168;28;20308;-63
2022/04/25 06:32:14;;;;;;;17.92;10.70;;;8.70;99.90;;;;;;5087711;28;20078;-63
2022/04/25 06:34:41;;;;;;;18.52;11.23;;;8.80;99.90;;;;;;5086674;28;20243;-63
2022/04/25 06:37:07;;;;;;;14.95;10.55;;;8.90;99.90;;;;;;5087324;28;20495;-63
2022/04/25 06:39:33;;;;;;;14.15;10.45;;;8.90;99.90;;;;;;5085590;28;20043;-63
2022/04/25 06:41:59;;;;;;;16.65;10.32;;;8.80;99.90;;;;;;5087731;28;20047;-64
2022/04/25 06:44:25;;;;;;;18.77;11.63;;;8.90;99.90;;;;;;5089978;28;20036;-63
2022/04/25 06:46:50;;;;;;;17.70;11.30;;;9.00;99.90;;;;;;5088933;28;20047;-63
2022/04/25 06:49:25;;;;;;;19.00;11.98;;;8.90;99.90;;;;;;5086763;28;20101;-64
2022/04/25 06:51:56;;;;;;;18.63;10.63;;;8.90;99.90;;;;;;5086942;28;20428;-65
2022/04/25 06:54:24;;;;;;;16.88;11.57;;;8.90;99.90;;;;;;5088095;28;20077;-65
2022/04/25 06:56:50;;;;;;;18.70;11.23;;;9.00;99.90;;;;;;5086355;28;20063;-64
2022/04/25 06:59:16;;;;;;;20.55;12.38;;;9.00;99.90;;;;;;5083178;28;20768;-64
2022/04/25 07:01:42;;;;;;;17.27;11.43;;;9.10;99.90;;;;;;5086053;28;20081;-64
2022/04/25 07:04:08;;;;;;;19.50;10.93;;;9.10;99.90;;;;;;5086180;28;20170;-65
2022/04/25 07:06:34;;;;;;;20.05;11.60;;;9.10;99.90;;;;;;5086080;28;20093;-64
2022/04/25 07:09:00;;;;;;;20.10;11.90;;;9.10;99.90;;;;;;5089125;28;20398;-64
2022/04/25 07:11:26;;;;;;;15.00;10.23;;;9.10;99.90;;;;;;5088662;28;20048;-62
2022/04/25 07:13:51;;;;;;;17.38;11.18;;;9.20;99.90;;;;;;5087922;28;20056;-62
2022/04/25 07:16:17;;;;;;;18.65;11.65;;;9.30;99.90;;;;;;5087982;28;20036;-63
2022/04/25 07:18:43;;;;;;;17.42;11.20;;;9.40;99.90;;;;;;5089383;28;20091;-65
2022/04/25 07:29:22;;;;;;;19.30;11.95;;;9.20;99.90;;;;;;5077863;28;20593;-65
2022/04/25 07:31:51;;;;;;;18.73;12.25;;;9.20;99.90;;;;;;5086671;28;20075;-64
2022/04/25 07:34:20;;;;;;;18.83;12.27;;;9.20;99.90;;;;;;5087454;28;20086;-64
2022/04/25 07:36:51;;;;;;;21.45;12.40;;;9.20;99.90;;;;;;5086476;28;20039;-64
2022/04/25 07:39:20;;;;;;;19.27;12.77;;;9.20;99.90;;;;;;5086974;28;20435;-62
2022/04/25 07:41:46;;;;;;;18.95;11.80;;;9.10;99.90;;;;;;5086857;28;20135;-62
2022/04/25 07:44:12;;;;;;;20.20;12.35;;;9.10;99.90;;;;;;5089146;28;20082;-62
2022/04/25 07:46:40;;;;;;;19.75;12.45;;;9.10;99.90;;;;;;5088614;28;20068;-64
2022/04/25 07:49:07;;;;;;;20.60;12.25;;;9.10;99.90;;;;;;5088394;28;20036;-64
2022/04/25 07:51:33;;;;;;;17.55;11.75;;;9.10;99.90;;;;;;5085599;28;20465;-65
2022/04/25 07:53:58;;;;;;;19.42;12.07;;;9.10;99.90;;;;;;5085383;28;20044;-64
2022/04/25 07:56:26;;;;;;;21.80;12.25;;;9.10;99.90;;;;;;5087220;28;20048;-64
2022/04/25 07:58:51;;;;;;;15.60;10.75;;;9.10;99.90;;;;;;5086001;28;20073;-62
2022/04/25 08:01:17;;;;;;;17.75;11.68;;;9.10;99.90;;;;;;5086654;28;20044;-61
2022/04/25 08:03:42;;;;;;;17.58;11.90;;;9.20;99.90;;;;;;5089387;28;20040;-65
2022/04/25 08:06:08;;;;;;;17.80;10.98;;;9.30;99.90;;;;;;5082230;28;20078;-64
2022/04/25 08:08:34;;;;;;;20.38;11.57;;;9.30;99.90;;;;;;5088219;28;20052;-65
2022/04/25 08:11:00;;;;;;;17.63;11.50;;;9.30;99.90;;;;;;5088602;28;20524;-64
2022/04/25 08:18:53;;;;;;;16.88;11.63;;;9.30;99.90;;;;;;5087485;28;20044;-65
2022/04/25 08:21:19;;;;;;;18.65;12.10;;;9.30;99.90;;;;;;5086411;28;20416;-64
2022/04/25 08:23:45;;;;;;;18.50;12.63;;;9.30;99.90;;;;;;5088729;28;20105;-65
2022/04/25 08:26:12;;;;;;;18.13;11.73;;;9.30;99.90;;;;;;5085444;28;20165;-63
2022/04/25 08:28:37;;;;;;;21.08;11.98;;;9.30;99.90;;;;;;5069658;28;20041;-64
2022/04/25 08:31:03;;;;;;;17.48;11.18;;;9.20;99.90;;;;;;5075603;28;20042;-64
2022/04/25 08:33:30;;;;;;;17.63;11.27;;;9.10;99.90;;;;;;5086135;28;20192;-66
2022/04/25 08:35:57;;;;;;;17.63;10.95;;;9.00;99.90;;;;;;5072081;28;20039;-64
2022/04/25 08:38:23;;;;;;;17.50;10.65;;;8.90;99.90;;;;;;5077668;28;20044;-64
2022/04/25 08:40:49;;;;;;;16.13;11.25;;;8.80;99.90;;;;;;5087318;28;20039;-64
2022/04/25 08:43:15;;;;;;;18.85;11.27;;;8.80;99.90;;;;;;5089880;28;20040;-65
2022/04/25 08:45:41;;;;;;;16.20;11.50;;;8.90;99.90;;;;;;5091713;28;20043;-65
2022/04/25 08:48:08;;;;;;;16.63;11.35;;;8.80;99.90;;;;;;5090135;28;20131;-64
2022/04/25 08:50:34;;;;;;;18.17;11.88;;;8.90;99.90;;;;;;5090020;28;20070;-64
2022/04/25 08:53:01;;;;;;;18.98;12.00;;;8.90;99.90;;;;;;5092114;28;20068;-65
2022/04/25 08:55:27;;;;;;;15.25;10.38;;;8.90;99.90;;;;;;5090371;28;20170;-64
2022/04/25 08:57:54;;;;;;;16.00;10.93;;;9.00;99.90;;;;;;5083925;28;20062;-64
2022/04/25 09:00:19;;;;;;;19.15;11.15;;;9.00;99.90;;;;;;5090942;28;20084;-64
2022/04/25 09:02:47;;;;;;;17.40;10.68;;;9.10;99.90;;;;;;5086480;28;20089;-64
2022/04/25 09:05:13;;;;;;;14.32;10.18;;;9.10;99.90;;;;;;5089399;28;20036;-64
2022/04/25 09:07:40;;;;;;;16.63;10.57;;;9.10;99.90;;;;;;5090884;28;20047;-64
2022/04/25 09:10:11;;;;;;;16.30;10.63;;;9.10;99.90;;;;;;5089181;28;20387;-65
2022/04/25 09:12:38;;;;;;;14.05;9.82;;;9.10;99.90;;;;;;5090880;28;20040;-64
2022/04/25 09:15:05;;;;;;;16.58;10.13;;;9.10;99.90;;;;;;5091192;28;20055;-64
2022/04/25 09:17:32;;;;;;;14.20;9.95;;;9.10;99.90;;;;;;5090230;28;20036;-64
2022/04/25 09:19:58;;;;;;;16.67;9.88;;;9.00;99.90;;;;;;5089419;28;20052;-64
2022/04/25 09:22:32;;;;;;;16.67;11.02;;;9.10;99.90;;;;;;5087455;28;20084;-64
2022/04/25 09:25:11;;;;;;;16.13;10.25;;;9.10;99.90;;;;;;5090117;28;20082;-64
2022/04/25 09:27:38;;;;;;;16.17;10.48;;;9.00;99.90;;;;;;5085260;28;20040;-64
2022/04/25 09:30:20;;;;;;;18.00;11.00;;;9.10;99.90;;;;;;5070021;28;20044;-64
2022/04/25 09:32:52;;;;;;;18.73;11.05;;;8.90;99.90;;;;;;5089325;28;20071;-64
2022/04/25 09:35:37;;;;;;;15.30;11.00;;;8.90;99.90;;;;;;5088949;28;20044;-64
2022/04/25 09:38:09;;;;;;;17.60;11.15;;;9.00;99.90;;;;;;5087997;28;20036;-67
2022/04/25 09:40:38;;;;;;;17.15;11.93;;;9.00;99.90;;;;;;5073343;28;20036;-64
2022/04/25 09:43:07;;;;;;;16.83;11.77;;;9.00;99.90;;;;;;5090648;28;20090;-64
2022/04/25 09:45:35;;;;;;;16.65;10.60;;;9.10;99.90;;;;;;5089307;28;20113;-64
2022/04/25 09:48:01;;;;;;;18.15;12.35;;;9.00;99.90;;;;;;5090846;28;20495;-64
2022/04/25 09:50:27;;;;;;;18.45;12.65;;;9.00;99.90;;;;;;5087227;28;20237;-65
2022/04/25 09:52:58;;;;;;;19.73;12.77;;;9.10;99.90;;;;;;5089259;28;20039;-64
2022/04/25 09:55:29;;;;;;;20.42;12.23;;;9.20;99.90;;;;;;5088895;28;20487;-64
2022/04/25 09:57:55;;;;;;;19.30;13.77;;;9.30;99.90;;;;;;5087662;28;20219;-64
2022/04/25 10:00:38;;;;;;;20.80;12.82;;;9.40;99.90;;;;;;5088837;28;20218;-64
2022/04/25 10:03:08;;;;;;;18.80;13.05;;;9.40;99.90;;;;;;5088528;28;20048;-64
2022/04/25 10:05:45;;;;;;;16.42;12.32;;;9.30;99.90;;;;;;5086560;28;21399;-64
2022/04/25 10:08:14;;;;;;;18.35;12.75;;;9.40;99.90;;;;;;5087908;28;20122;-64
2022/04/25 10:10:50;;;;;;;21.00;13.60;;;9.50;99.90;;;;;;5072822;28;20071;-65
2022/04/25 10:13:16;;;;;;;21.60;13.05;;;9.50;99.90;;;;;;5086609;28;20048;-64
2022/04/25 10:15:44;;;;;;;19.23;13.07;;;9.50;99.90;;;;;;5087600;28;20074;-64
2022/04/25 10:18:11;;;;;;;20.40;13.18;;;9.50;99.90;;;;;;5089232;28;20078;-64
2022/04/25 10:20:38;;;;;;;21.20;13.20;;;9.50;99.90;;;;;;5087210;28;20044;-64
2022/04/25 10:23:06;;;;;;;19.73;12.90;;;9.50;99.90;;;;;;5089224;28;20112;-65
2022/04/25 10:25:32;;;;;;;15.80;11.93;;;9.50;99.90;;;;;;5088188;28;20115;-65
2022/04/25 10:28:01;;;;;;;20.60;12.85;;;9.50;99.90;;;;;;5084530;28;20048;-64
2022/04/25 10:30:33;;;;;;;17.88;12.55;;;9.60;99.90;;;;;;5076250;28;20040;-65
2022/04/25 10:33:12;;;;;;;16.58;11.52;;;9.60;99.90;;;;;;5088050;28;20479;-64
2022/04/25 10:35:37;;;;;;;15.05;11.77;;;9.70;99.90;;;;;;5087503;28;20052;-65
2022/04/25 10:38:48;;;;;;;16.02;11.80;;;9.70;99.90;;;;;;5088203;28;20486;-64
2022/04/25 10:44:30;;;;;;;16.33;11.20;;;9.80;99.90;;;;;;5087956;28;20128;-64
2022/04/25 10:47:16;;;;;;;16.30;11.55;;;10.10;99.90;;;;;;5074447;28;20064;-65
2022/04/25 10:49:43;;;;;;;17.23;10.82;;;10.40;99.90;;;;;;5068278;28;20131;-64
2022/04/25 10:52:43;;;;;;;15.20;10.50;;;10.60;99.90;;;;;;5077437;28;20036;-65
2022/04/25 10:55:43;;;;;;;12.32;9.40;;;10.70;99.90;;;;;;5083539;28;20056;-65
2022/04/25 10:58:08;;;;;;;12.65;9.27;;;10.90;99.90;;;;;;5085615;28;20055;-65
2022/04/25 11:00:36;;;;;;;13.00;9.95;;;10.90;99.90;;;;;;5088819;28;20402;-64
2022/04/25 11:03:10;;;;;;;14.43;9.77;;;11.00;99.90;;;;;;5082990;28;20040;-65
2022/04/25 11:05:50;;;;;;;13.63;9.20;;;11.00;99.90;;;;;;5086636;28;20093;-63
2022/04/25 11:08:19;;;;;;;14.43;9.73;;;10.90;99.90;;;;;;5087057;28;20139;-64
2022/04/25 11:10:57;;;;;;;13.43;9.23;;;10.90;99.90;;;;;;5086050;28;20075;-64
2022/04/25 11:13:25;;;;;;;13.85;8.90;;;10.80;99.90;;;;;;5080826;28;20075;-65
2022/04/25 11:15:53;;;;;;;14.98;9.10;;;10.70;99.90;;;;;;5086038;28;20478;-64
2022/04/25 11:18:41;;;;;;;14.52;9.10;;;10.60;99.90;;;;;;5087588;28;20079;-64
2022/04/25 11:21:09;;;;;;;12.60;8.93;;;10.50;99.90;;;;;;5083977;28;20044;-64
2022/04/25 11:23:45;;;;;;;15.13;9.05;;;10.50;99.90;;;;;;5087598;28;20048;-64
2022/04/25 11:26:26;;;;;;;16.10;9.15;;;10.30;99.90;;;;;;5087759;28;20060;-64
2022/04/25 11:28:54;;;;;;;11.85;8.40;;;10.50;99.90;;;;;;5088006;28;20044;-64
2022/04/25 11:31:22;;;;;;;14.50;8.65;;;10.60;99.90;;;;;;5087247;28;20544;-64
2022/04/25 11:33:52;;;;;;;11.98;8.80;;;10.70;99.90;;;;;;5088072;28;20047;-65
2022/04/25 11:36:23;;;;;;;14.38;9.13;;;10.90;99.90;;;;;;5083197;28;20177;-64
2022/04/25 11:41:36;;;;;;;11.32;8.45;;;11.40;99.90;;;;;;5072209;28;20067;-64
2022/04/25 11:44:02;;;;;;;11.93;7.43;;;11.50;99.90;;;;;;5079407;28;20044;-66
2022/04/25 11:46:30;;;;;;;12.68;7.70;;;11.70;99.90;;;;;;5088511;28;20502;-63
2022/04/25 11:48:56;;;;;;;12.07;8.13;;;11.70;99.90;;;;;;5087819;28;20081;-64
2022/04/25 11:51:33;;;;;;;12.48;7.65;;;11.90;99.90;;;;;;5084623;28;20082;-64
2022/04/25 11:54:04;;;;;;;11.77;8.02;;;12.10;99.90;;;;;;5084641;28;20108;-65
2022/04/25 11:56:31;;;;;;;12.93;8.13;;;12.20;99.90;;;;;;5087922;28;20056;-64
2022/04/25 11:58:58;;;;;;;13.32;7.43;;;12.30;99.90;;;;;;5086023;28;20123;-64
2022/04/25 12:01:53;;;;;;;13.45;7.32;;;12.40;99.90;;;;;;5087801;28;20108;-64
2022/04/25 12:04:26;;;;;;;12.47;7.63;;;12.40;99.90;;;;;;5084452;28;20052;-63
2022/04/25 12:07:03;;;;;;;12.52;7.47;;;12.50;99.90;;;;;;5087494;28;20151;-63
2022/04/25 12:15:34;;;;;;;9.00;6.82;;;12.50;99.90;;;;;;5087054;28;20505;-64
2022/04/25 12:18:18;;;;;;;9.50;7.03;;;12.50;99.90;;;;;;5084018;28;20044;-66
2022/04/25 12:20:47;;;;;;;11.23;7.03;;;12.50;99.90;;;;;;5083649;28;20356;-64
2022/04/25 12:23:25;;;;;;;11.80;7.57;;;12.50;99.90;;;;;;5086050;28;20541;-64
2022/04/25 12:25:51;;;;;;;9.75;6.93;;;12.60;99.90;;;;;;5085881;28;20479;-64
2022/04/25 12:28:19;;;;;;;12.25;7.60;;;12.80;99.90;;;;;;5087514;28;20151;-64
2022/04/25 12:30:54;;;;;;;9.18;6.55;;;13.00;99.90;;;;;;5088076;28;20043;-63
2022/04/25 12:33:23;;;;;;;11.05;7.30;;;13.00;99.90;;;;;;5087064;28;20127;-64
2022/04/25 12:35:51;;;;;;;10.93;7.10;;;13.20;99.90;;;;;;5087522;28;20116;-64
2022/04/25 12:38:40;;;;;;;11.27;7.57;;;13.20;99.90;;;;;;5083933;28;20062;-64
2022/04/25 12:41:07;;;;;;;10.65;7.22;;;13.40;99.90;;;;;;5074078;28;20109;-65
2022/04/25 12:43:37;;;;;;;12.43;7.85;;;13.60;99.90;;;;;;5087749;28;20036;-64
2022/04/25 12:46:03;;;;;;;10.43;7.28;;;13.70;99.90;;;;;;5086092;28;20055;-65
2022/04/25 12:48:29;;;;;;;12.13;6.85;;;13.70;99.90;;;;;;5087491;28;20111;-64
2022/04/25 12:50:54;;;;;;;9.93;7.10;;;13.80;99.90;;;;;;5085560;28;20444;-65
2022/04/25 12:53:40;;;;;;;10.77;7.30;;;13.80;99.90;;;;;;5085375;28;20393;-64
2022/04/25 12:56:06;;;;;;;10.48;7.07;;;13.80;99.90;;;;;;5080504;28;20139;-64
2022/04/25 12:58:34;;;;;;;11.63;7.13;;;13.90;99.90;;;;;;5087504;28;20111;-63
2022/04/25 13:01:00;;;;;;;10.68;7.72;;;14.00;99.90;;;;;;5085726;28;20084;-65
2022/04/25 13:03:26;;;;;;;9.73;6.57;;;14.00;99.90;;;;;;5086090;28;20067;-64
2022/04/25 13:05:53;;;;;;;10.35;7.65;;;14.10;99.90;;;;;;5083884;28;20052;-65
2022/04/25 13:08:19;;;;;;;9.38;7.35;;;14.20;99.90;;;;;;5084175;28;20046;-65
2022/04/25 13:10:45;;;;;;;11.38;6.65;;;14.30;99.90;;;;;;5086477;28;20041;-64
2022/04/25 13:13:11;;;;;;;9.73;6.60;;;14.30;99.90;;;;;;5085924;28;20054;-65
2022/04/25 13:15:38;;;;;;;11.88;6.70;;;14.40;99.90;;;;;;5084831;28;20079;-65
2022/04/25 13:18:04;;;;;;;11.75;7.35;;;14.40;99.90;;;;;;5085715;28;20046;-64